sensor_id;sensor_type;location;lat;lon;timestamp;temperature;humidity
63875;DHT22;51595;24.180;-110.296;2022-09-03T00:07:07;30.10;99.90
63875;DHT22;51595;24.180;-110.296;2022-09-03T00:09:46;30.20;99.90
63875;DHT22;51595;24.180;-110.296;2022-09-03T00:12:15;30.20;99.90
63875;DHT22;51595;24.180;-110.296;2022-09-03T00:17:29;30.00;99.90
63875;DHT22;51595;24.180;-110.296;2022-09-03T00:20:11;30.10;99.90
63875;DHT22;51595;24.180;-110.296;2022-09-03T00:22:42;30.00;99.90
63875;DHT22;51595;24.180;-110.296;2022-09-03T00:25:14;30.10;99.90
63875;DHT22;51595;24.180;-110.296;2022-09-03T00:27:42;30.30;99.90
63875;DHT22;51595;24.180;-110.296;2022-09-03T00:30:10;30.30;99.90
63875;DHT22;51595;24.180;-110.296;2022-09-03T00:32:53;30.40;99.90
63875;DHT22;51595;24.180;-110.296;2022-09-03T00:35:25;30.40;99.90
63875;DHT22;51595;24.180;-110.296;2022-09-03T00:37:53;30.40;99.90
63875;DHT22;51595;24.180;-110.296;2022-09-03T00:42:57;30.50;99.90
63875;DHT22;51595;24.180;-110.296;2022-09-03T00:45:33;30.40;99.90
63875;DHT22;51595;24.180;-110.296;2022-09-03T00:48:12;30.50;99.90
63875;DHT22;51595;24.180;-110.296;2022-09-03T00:51:00;30.60;99.90
63875;DHT22;51595;24.180;-110.296;2022-09-03T00:59:02;30.60;99.90
63875;DHT22;51595;24.180;-110.296;2022-09-03T01:04:17;30.60;99.90
63875;DHT22;51595;24.180;-110.296;2022-09-03T01:19:51;30.60;99.90
63875;DHT22;51595;24.180;-110.296;2022-09-03T01:27:37;30.60;99.90
63875;DHT22;51595;24.180;-110.296;2022-09-03T01:30:18;30.60;99.90
63875;DHT22;51595;24.180;-110.296;2022-09-03T01:35:13;30.60;99.90
63875;DHT22;51595;24.180;-110.296;2022-09-03T01:37:53;30.50;99.90
63875;DHT22;51595;24.180;-110.296;2022-09-03T01:40:39;30.50;99.90
63875;DHT22;51595;24.180;-110.296;2022-09-03T01:43:18;30.50;99.90
63875;DHT22;51595;24.180;-110.296;2022-09-03T01:45:53;30.50;99.90
63875;DHT22;51595;24.180;-110.296;2022-09-03T01:48:44;30.50;99.90
63875;DHT22;51595;24.180;-110.296;2022-09-03T01:51:20;30.40;99.90
63875;DHT22;51595;24.180;-110.296;2022-09-03T02:01:42;30.40;99.90
63875;DHT22;51595;24.180;-110.296;2022-09-03T02:04:14;30.40;99.90
63875;DHT22;51595;24.180;-110.296;2022-09-03T02:06:41;30.50;99.90
63875;DHT22;51595;24.180;-110.296;2022-09-03T02:09:11;30.50;99.90
63875;DHT22;51595;24.180;-110.296;2022-09-03T02:11:37;30.60;99.90
63875;DHT22;51595;24.180;-110.296;2022-09-03T02:14:04;30.60;99.90
63875;DHT22;51595;24.180;-110.296;2022-09-03T02:16:30;30.60;99.90
63875;DHT22;51595;24.180;-110.296;2022-09-03T02:18:58;30.60;99.90
63875;DHT22;51595;24.180;-110.296;2022-09-03T02:21:26;30.60;99.90
63875;DHT22;51595;24.180;-110.296;2022-09-03T02:23:52;30.50;99.90
63875;DHT22;51595;24.180;-110.296;2022-09-03T02:26:20;30.50;99.90
63875;DHT22;51595;24.180;-110.296;2022-09-03T02:28:46;30.50;99.90
63875;DHT22;51595;24.180;-110.296;2022-09-03T02:31:13;30.40;99.90
63875;DHT22;51595;24.180;-110.296;2022-09-03T02:33:39;30.40;99.90
63875;DHT22;51595;24.180;-110.296;2022-09-03T02:36:08;30.40;99.90
63875;DHT22;51595;24.180;-110.296;2022-09-03T02:38:34;30.30;99.90
63875;DHT22;51595;24.180;-110.296;2022-09-03T02:41:01;30.40;99.90
63875;DHT22;51595;24.180;-110.296;2022-09-03T02:45:54;30.40;99.90
63875;DHT22;51595;24.180;-110.296;2022-09-03T02:48:23;30.30;99.90
63875;DHT22;51595;24.180;-110.296;2022-09-03T02:50:49;30.20;99.90
63875;DHT22;51595;24.180;-110.296;2022-09-03T02:53:15;30.20;99.90
63875;DHT22;51595;24.180;-110.296;2022-09-03T02:55:41;30.20;99.90
63875;DHT22;51595;24.180;-110.296;2022-09-03T02:58:07;30.20;99.90
63875;DHT22;51595;24.180;-110.296;2022-09-03T03:00:34;30.10;99.90
63875;DHT22;51595;24.180;-110.296;2022-09-03T03:03:01;30.10;99.90
63875;DHT22;51595;24.180;-110.296;2022-09-03T03:05:29;30.10;99.90
63875;DHT22;51595;24.180;-110.296;2022-09-03T03:07:57;30.10;99.90
63875;DHT22;51595;24.180;-110.296;2022-09-03T03:10:23;30.10;99.90
63875;DHT22;51595;24.180;-110.296;2022-09-03T03:12:49;30.10;99.90
63875;DHT22;51595;24.180;-110.296;2022-09-03T03:15:15;29.90;99.90
63875;DHT22;51595;24.180;-110.296;2022-09-03T03:17:41;29.90;99.90
63875;DHT22;51595;24.180;-110.296;2022-09-03T03:20:07;29.90;99.90
63875;DHT22;51595;24.180;-110.296;2022-09-03T03:22:34;30.00;99.90
63875;DHT22;51595;24.180;-110.296;2022-09-03T03:25:00;30.00;99.90
63875;DHT22;51595;24.180;-110.296;2022-09-03T03:27:26;30.00;99.90
63875;DHT22;51595;24.180;-110.296;2022-09-03T03:29:55;30.00;99.90
63875;DHT22;51595;24.180;-110.296;2022-09-03T03:32:23;30.00;99.90
63875;DHT22;51595;24.180;-110.296;2022-09-03T03:34:49;29.90;99.90
63875;DHT22;51595;24.180;-110.296;2022-09-03T03:37:15;30.00;99.90
63875;DHT22;51595;24.180;-110.296;2022-09-03T03:39:41;29.90;99.90
63875;DHT22;51595;24.180;-110.296;2022-09-03T03:42:07;29.50;99.90
63875;DHT22;51595;24.180;-110.296;2022-09-03T03:44:34;29.20;99.90
63875;DHT22;51595;24.180;-110.296;2022-09-03T03:47:01;29.00;99.90
63875;DHT22;51595;24.180;-110.296;2022-09-03T03:49:27;28.80;99.90
63875;DHT22;51595;24.180;-110.296;2022-09-03T03:51:53;28.80;99.90
63875;DHT22;51595;24.180;-110.296;2022-09-03T03:54:19;29.00;99.90
63875;DHT22;51595;24.180;-110.296;2022-09-03T03:56:48;29.10;99.90
63875;DHT22;51595;24.180;-110.296;2022-09-03T03:59:15;29.30;99.90
63875;DHT22;51595;24.180;-110.296;2022-09-03T04:01:41;29.50;99.90
63875;DHT22;51595;24.180;-110.296;2022-09-03T04:04:07;29.80;99.90
63875;DHT22;51595;24.180;-110.296;2022-09-03T04:06:33;29.90;99.90
63875;DHT22;51595;24.180;-110.296;2022-09-03T04:08:59;30.00;99.90
63875;DHT22;51595;24.180;-110.296;2022-09-03T04:11:25;30.00;99.90
63875;DHT22;51595;24.180;-110.296;2022-09-03T04:13:54;30.00;99.90
63875;DHT22;51595;24.180;-110.296;2022-09-03T04:16:22;30.00;99.90
63875;DHT22;51595;24.180;-110.296;2022-09-03T04:18:49;29.90;99.90
63875;DHT22;51595;24.180;-110.296;2022-09-03T04:21:16;29.90;99.90
63875;DHT22;51595;24.180;-110.296;2022-09-03T04:23:43;29.80;99.90
63875;DHT22;51595;24.180;-110.296;2022-09-03T04:26:11;29.90;99.90
63875;DHT22;51595;24.180;-110.296;2022-09-03T04:28:37;30.00;99.90
63875;DHT22;51595;24.180;-110.296;2022-09-03T04:31:05;30.20;99.90
63875;DHT22;51595;24.180;-110.296;2022-09-03T04:33:31;30.30;99.90
63875;DHT22;51595;24.180;-110.296;2022-09-03T04:36:05;30.20;99.90
63875;DHT22;51595;24.180;-110.296;2022-09-03T04:38:31;30.10;99.90
63875;DHT22;51595;24.180;-110.296;2022-09-03T04:40:58;29.90;99.90
63875;DHT22;51595;24.180;-110.296;2022-09-03T04:43:26;29.90;99.90
63875;DHT22;51595;24.180;-110.296;2022-09-03T04:45:55;29.80;99.90
63875;DHT22;51595;24.180;-110.296;2022-09-03T04:48:22;29.70;99.90
63875;DHT22;51595;24.180;-110.296;2022-09-03T04:50:48;29.50;99.90
63875;DHT22;51595;24.180;-110.296;2022-09-03T04:53:14;29.50;99.90
63875;DHT22;51595;24.180;-110.296;2022-09-03T04:55:40;29.40;99.90
63875;DHT22;51595;24.180;-110.296;2022-09-03T04:58:06;29.40;99.90
63875;DHT22;51595;24.180;-110.296;2022-09-03T05:00:32;29.40;99.90
63875;DHT22;51595;24.180;-110.296;2022-09-03T05:03:00;29.50;99.90
63875;DHT22;51595;24.180;-110.296;2022-09-03T05:05:27;29.60;99.90
63875;DHT22;51595;24.180;-110.296;2022-09-03T05:07:56;29.80;99.90
63875;DHT22;51595;24.180;-110.296;2022-09-03T05:10:22;29.80;99.90
63875;DHT22;51595;24.180;-110.296;2022-09-03T05:13:01;29.80;99.90
63875;DHT22;51595;24.180;-110.296;2022-09-03T05:15:28;29.90;99.90
63875;DHT22;51595;24.180;-110.296;2022-09-03T05:17:55;29.90;99.90
63875;DHT22;51595;24.180;-110.296;2022-09-03T05:20:21;29.90;99.90
63875;DHT22;51595;24.180;-110.296;2022-09-03T05:22:47;30.10;99.90
63875;DHT22;51595;24.180;-110.296;2022-09-03T05:25:13;30.20;99.90
63875;DHT22;51595;24.180;-110.296;2022-09-03T05:27:39;30.10;99.90
63875;DHT22;51595;24.180;-110.296;2022-09-03T05:30:05;30.00;99.90
63875;DHT22;51595;24.180;-110.296;2022-09-03T05:32:32;30.00;99.90
63875;DHT22;51595;24.180;-110.296;2022-09-03T05:34:58;29.90;99.90
63875;DHT22;51595;24.180;-110.296;2022-09-03T05:37:24;29.70;99.90
63875;DHT22;51595;24.180;-110.296;2022-09-03T05:39:50;29.60;99.90
63875;DHT22;51595;24.180;-110.296;2022-09-03T05:42:18;29.40;99.90
63875;DHT22;51595;24.180;-110.296;2022-09-03T05:44:45;29.30;99.90
63875;DHT22;51595;24.180;-110.296;2022-09-03T05:47:11;29.20;99.90
63875;DHT22;51595;24.180;-110.296;2022-09-03T05:49:38;29.00;99.90
63875;DHT22;51595;24.180;-110.296;2022-09-03T05:52:04;29.00;99.90
63875;DHT22;51595;24.180;-110.296;2022-09-03T05:54:30;28.90;99.90
63875;DHT22;51595;24.180;-110.296;2022-09-03T05:56:56;28.90;99.90
63875;DHT22;51595;24.180;-110.296;2022-09-03T05:59:22;29.00;99.90
63875;DHT22;51595;24.180;-110.296;2022-09-03T06:01:48;29.50;99.90
63875;DHT22;51595;24.180;-110.296;2022-09-03T06:04:15;29.70;99.90
63875;DHT22;51595;24.180;-110.296;2022-09-03T06:06:42;29.80;99.90
63875;DHT22;51595;24.180;-110.296;2022-09-03T06:09:09;29.70;99.90
63875;DHT22;51595;24.180;-110.296;2022-09-03T06:11:36;29.70;99.90
63875;DHT22;51595;24.180;-110.296;2022-09-03T06:14:04;29.70;99.90
63875;DHT22;51595;24.180;-110.296;2022-09-03T06:16:30;29.70;99.90
63875;DHT22;51595;24.180;-110.296;2022-09-03T06:18:57;29.80;99.90
63875;DHT22;51595;24.180;-110.296;2022-09-03T06:21:23;29.70;99.90
63875;DHT22;51595;24.180;-110.296;2022-09-03T06:23:50;29.60;99.90
63875;DHT22;51595;24.180;-110.296;2022-09-03T06:26:17;29.50;99.90
63875;DHT22;51595;24.180;-110.296;2022-09-03T06:28:44;29.40;99.90
63875;DHT22;51595;24.180;-110.296;2022-09-03T06:31:12;29.50;99.90
63875;DHT22;51595;24.180;-110.296;2022-09-03T06:33:39;29.60;99.90
63875;DHT22;51595;24.180;-110.296;2022-09-03T06:36:08;29.70;99.90
63875;DHT22;51595;24.180;-110.296;2022-09-03T06:38:34;29.60;99.90
63875;DHT22;51595;24.180;-110.296;2022-09-03T06:41:02;29.60;99.90
63875;DHT22;51595;24.180;-110.296;2022-09-03T06:43:29;29.50;99.90
63875;DHT22;51595;24.180;-110.296;2022-09-03T06:45:56;29.70;99.90
63875;DHT22;51595;24.180;-110.296;2022-09-03T06:48:23;29.70;99.90
63875;DHT22;51595;24.180;-110.296;2022-09-03T06:50:59;29.60;99.90
63875;DHT22;51595;24.180;-110.296;2022-09-03T06:53:27;29.70;99.90
63875;DHT22;51595;24.180;-110.296;2022-09-03T06:55:57;29.50;99.90
63875;DHT22;51595;24.180;-110.296;2022-09-03T06:58:27;29.40;99.90
63875;DHT22;51595;24.180;-110.296;2022-09-03T07:00:53;29.40;99.90
63875;DHT22;51595;24.180;-110.296;2022-09-03T07:03:19;29.40;99.90
63875;DHT22;51595;24.180;-110.296;2022-09-03T07:05:46;29.40;99.90
63875;DHT22;51595;24.180;-110.296;2022-09-03T07:08:12;29.50;99.90
63875;DHT22;51595;24.180;-110.296;2022-09-03T07:10:38;29.60;99.90
63875;DHT22;51595;24.180;-110.296;2022-09-03T07:13:04;29.70;99.90
63875;DHT22;51595;24.180;-110.296;2022-09-03T07:15:33;29.60;99.90
63875;DHT22;51595;24.180;-110.296;2022-09-03T07:17:59;29.50;99.90
63875;DHT22;51595;24.180;-110.296;2022-09-03T07:20:28;29.50;99.90
63875;DHT22;51595;24.180;-110.296;2022-09-03T07:22:54;29.50;99.90
63875;DHT22;51595;24.180;-110.296;2022-09-03T07:36:56;29.40;99.90
63875;DHT22;51595;24.180;-110.296;2022-09-03T07:39:23;29.70;99.90
63875;DHT22;51595;24.180;-110.296;2022-09-03T07:41:49;29.70;99.90
63875;DHT22;51595;24.180;-110.296;2022-09-03T07:44:16;29.70;99.90
63875;DHT22;51595;24.180;-110.296;2022-09-03T07:46:47;29.60;99.90
63875;DHT22;51595;24.180;-110.296;2022-09-03T07:49:15;29.50;99.90
63875;DHT22;51595;24.180;-110.296;2022-09-03T07:51:42;29.40;99.90
63875;DHT22;51595;24.180;-110.296;2022-09-03T07:54:09;29.30;99.90
63875;DHT22;51595;24.180;-110.296;2022-09-03T07:56:37;29.10;99.90
63875;DHT22;51595;24.180;-110.296;2022-09-03T07:59:04;29.10;99.90
63875;DHT22;51595;24.180;-110.296;2022-09-03T08:01:31;29.00;99.90
63875;DHT22;51595;24.180;-110.296;2022-09-03T08:03:58;29.00;99.90
63875;DHT22;51595;24.180;-110.296;2022-09-03T08:06:27;28.90;99.90
63875;DHT22;51595;24.180;-110.296;2022-09-03T08:09:02;28.70;99.90
63875;DHT22;51595;24.180;-110.296;2022-09-03T08:11:29;28.60;99.90
63875;DHT22;51595;24.180;-110.296;2022-09-03T08:14:01;28.60;99.90
63875;DHT22;51595;24.180;-110.296;2022-09-03T08:16:36;28.70;99.90
63875;DHT22;51595;24.180;-110.296;2022-09-03T08:19:03;28.60;99.90
63875;DHT22;51595;24.180;-110.296;2022-09-03T08:21:30;28.50;99.90
63875;DHT22;51595;24.180;-110.296;2022-09-03T08:23:57;28.50;99.90
63875;DHT22;51595;24.180;-110.296;2022-09-03T08:26:32;28.50;99.90
63875;DHT22;51595;24.180;-110.296;2022-09-03T08:28:59;28.50;99.90
63875;DHT22;51595;24.180;-110.296;2022-09-03T08:31:27;28.50;99.90
63875;DHT22;51595;24.180;-110.296;2022-09-03T08:33:56;28.50;99.90
63875;DHT22;51595;24.180;-110.296;2022-09-03T08:36:28;28.40;99.90
63875;DHT22;51595;24.180;-110.296;2022-09-03T08:38:59;28.50;99.90
63875;DHT22;51595;24.180;-110.296;2022-09-03T08:55:17;28.60;99.90
63875;DHT22;51595;24.180;-110.296;2022-09-03T08:57:50;28.60;99.90
63875;DHT22;51595;24.180;-110.296;2022-09-03T09:00:18;28.60;99.90
63875;DHT22;51595;24.180;-110.296;2022-09-03T09:02:57;28.50;99.90
63875;DHT22;51595;24.180;-110.296;2022-09-03T09:08:34;28.50;99.90
63875;DHT22;51595;24.180;-110.296;2022-09-03T09:14:02;28.50;99.90
63875;DHT22;51595;24.180;-110.296;2022-09-03T09:19:36;28.40;99.90
63875;DHT22;51595;24.180;-110.296;2022-09-03T09:22:17;28.50;99.90
63875;DHT22;51595;24.180;-110.296;2022-09-03T09:24:50;28.70;99.90
63875;DHT22;51595;24.180;-110.296;2022-09-03T09:27:18;28.80;99.90
63875;DHT22;51595;24.180;-110.296;2022-09-03T09:29:49;28.90;99.90
63875;DHT22;51595;24.180;-110.296;2022-09-03T09:32:18;29.00;99.90
63875;DHT22;51595;24.180;-110.296;2022-09-03T09:34:45;29.00;99.90
63875;DHT22;51595;24.180;-110.296;2022-09-03T09:37:14;28.90;99.90
63875;DHT22;51595;24.180;-110.296;2022-09-03T09:39:54;28.90;99.90
63875;DHT22;51595;24.180;-110.296;2022-09-03T09:42:22;28.90;99.90
63875;DHT22;51595;24.180;-110.296;2022-09-03T09:44:48;28.90;99.90
63875;DHT22;51595;24.180;-110.296;2022-09-03T09:47:15;28.90;99.90
63875;DHT22;51595;24.180;-110.296;2022-09-03T09:52:15;28.90;99.90
63875;DHT22;51595;24.180;-110.296;2022-09-03T09:54:43;28.90;99.90
63875;DHT22;51595;24.180;-110.296;2022-09-03T09:57:22;28.80;99.90
63875;DHT22;51595;24.180;-110.296;2022-09-03T09:59:49;28.90;99.90
63875;DHT22;51595;24.180;-110.296;2022-09-03T10:02:24;28.90;99.90
63875;DHT22;51595;24.180;-110.296;2022-09-03T10:05:11;28.90;99.90
63875;DHT22;51595;24.180;-110.296;2022-09-03T10:07:39;28.90;99.90
63875;DHT22;51595;24.180;-110.296;2022-09-03T10:10:17;28.90;99.90
63875;DHT22;51595;24.180;-110.296;2022-09-03T10:12:56;28.90;99.90
63875;DHT22;51595;24.180;-110.296;2022-09-03T10:26:21;28.80;99.90
63875;DHT22;51595;24.180;-110.296;2022-09-03T10:29:00;28.70;99.90
63875;DHT22;51595;24.180;-110.296;2022-09-03T10:40:43;28.80;99.90
63875;DHT22;51595;24.180;-110.296;2022-09-03T10:44:05;28.70;99.90
63875;DHT22;51595;24.180;-110.296;2022-09-03T10:46:18;28.60;99.90
63875;DHT22;51595;24.180;-110.296;2022-09-03T11:00:05;28.50;99.90
63875;DHT22;51595;24.180;-110.296;2022-09-03T11:02:53;28.60;99.90
63875;DHT22;51595;24.180;-110.296;2022-09-03T11:11:19;28.70;99.90
63875;DHT22;51595;24.180;-110.296;2022-09-03T11:13:52;28.80;99.90
63875;DHT22;51595;24.180;-110.296;2022-09-03T11:16:24;28.70;99.90
63875;DHT22;51595;24.180;-110.296;2022-09-03T11:19:07;28.80;99.90
63875;DHT22;51595;24.180;-110.296;2022-09-03T11:21:37;28.80;99.90
63875;DHT22;51595;24.180;-110.296;2022-09-03T11:24:13;28.70;99.90
63875;DHT22;51595;24.180;-110.296;2022-09-03T11:26:49;28.60;99.90
63875;DHT22;51595;24.180;-110.296;2022-09-03T11:29:30;28.60;99.90
63875;DHT22;51595;24.180;-110.296;2022-09-03T11:32:08;28.60;99.90
63875;DHT22;51595;24.180;-110.296;2022-09-03T11:34:48;28.60;99.90
63875;DHT22;51595;24.180;-110.296;2022-09-03T11:40:05;28.60;99.90
63875;DHT22;51595;24.180;-110.296;2022-09-03T11:42:39;28.80;99.90
63875;DHT22;51595;24.180;-110.296;2022-09-03T11:47:52;28.80;99.90
63875;DHT22;51595;24.180;-110.296;2022-09-03T11:50:30;28.70;99.90
63875;DHT22;51595;24.180;-110.296;2022-09-03T11:53:32;28.70;99.90
63875;DHT22;51595;24.180;-110.296;2022-09-03T11:58:34;28.60;99.90
63875;DHT22;51595;24.180;-110.296;2022-09-03T12:01:03;28.50;99.90
63875;DHT22;51595;24.180;-110.296;2022-09-03T12:03:51;28.50;99.90
63875;DHT22;51595;24.180;-110.296;2022-09-03T12:06:41;28.40;99.90
63875;DHT22;51595;24.180;-110.296;2022-09-03T12:12:06;28.20;99.90
63875;DHT22;51595;24.180;-110.296;2022-09-03T12:14:55;28.20;99.90
63875;DHT22;51595;24.180;-110.296;2022-09-03T12:20:14;28.10;99.90
63875;DHT22;51595;24.180;-110.296;2022-09-03T12:22:41;28.10;99.90
63875;DHT22;51595;24.180;-110.296;2022-09-03T12:25:12;28.20;99.90
63875;DHT22;51595;24.180;-110.296;2022-09-03T12:27:43;28.20;99.90
63875;DHT22;51595;24.180;-110.296;2022-09-03T12:30:18;28.00;99.90
63875;DHT22;51595;24.180;-110.296;2022-09-03T12:32:47;28.10;99.90
63875;DHT22;51595;24.180;-110.296;2022-09-03T12:35:23;28.20;99.90
63875;DHT22;51595;24.180;-110.296;2022-09-03T12:37:50;28.20;99.90
63875;DHT22;51595;24.180;-110.296;2022-09-03T12:40:21;28.10;99.90
63875;DHT22;51595;24.180;-110.296;2022-09-03T12:42:48;28.10;99.90
63875;DHT22;51595;24.180;-110.296;2022-09-03T12:45:20;28.00;99.90
63875;DHT22;51595;24.180;-110.296;2022-09-03T12:47:47;28.10;99.90
63875;DHT22;51595;24.180;-110.296;2022-09-03T12:50:20;28.20;99.90
63875;DHT22;51595;24.180;-110.296;2022-09-03T12:52:54;28.20;99.90
63875;DHT22;51595;24.180;-110.296;2022-09-03T12:55:35;28.20;99.90
63875;DHT22;51595;24.180;-110.296;2022-09-03T12:58:34;28.00;99.90
63875;DHT22;51595;24.180;-110.296;2022-09-03T13:01:09;27.90;99.90
63875;DHT22;51595;24.180;-110.296;2022-09-03T13:03:58;27.90;99.90
63875;DHT22;51595;24.180;-110.296;2022-09-03T13:06:34;28.00;99.90
63875;DHT22;51595;24.180;-110.296;2022-09-03T13:09:06;28.00;99.90
63875;DHT22;51595;24.180;-110.296;2022-09-03T13:11:35;28.00;99.90
63875;DHT22;51595;24.180;-110.296;2022-09-03T13:14:21;27.80;99.90
63875;DHT22;51595;24.180;-110.296;2022-09-03T13:28:01;27.40;99.90
63875;DHT22;51595;24.180;-110.296;2022-09-03T13:31:18;27.40;99.90
63875;DHT22;51595;24.180;-110.296;2022-09-03T13:36:16;27.50;99.90
63875;DHT22;51595;24.180;-110.296;2022-09-03T13:38:58;27.50;99.90
63875;DHT22;51595;24.180;-110.296;2022-09-03T13:41:47;27.60;99.90
63875;DHT22;51595;24.180;-110.296;2022-09-03T13:50:10;28.00;99.90
63875;DHT22;51595;24.180;-110.296;2022-09-03T13:53:08;28.10;99.90
63875;DHT22;51595;24.180;-110.296;2022-09-03T13:55:50;28.10;99.90
63875;DHT22;51595;24.180;-110.296;2022-09-03T14:07:14;28.50;99.90
63875;DHT22;51595;24.180;-110.296;2022-09-03T14:12:24;28.90;99.90
63875;DHT22;51595;24.180;-110.296;2022-09-03T14:14:55;29.00;99.90
63875;DHT22;51595;24.180;-110.296;2022-09-03T14:20:07;29.30;99.90
63875;DHT22;51595;24.180;-110.296;2022-09-03T14:25:31;29.60;99.90
63875;DHT22;51595;24.180;-110.296;2022-09-03T14:28:28;29.70;99.90
63875;DHT22;51595;24.180;-110.296;2022-09-03T14:41:48;30.70;99.90
63875;DHT22;51595;24.180;-110.296;2022-09-03T14:44:49;30.70;99.90
63875;DHT22;51595;24.180;-110.296;2022-09-03T14:50:40;30.70;99.90
63875;DHT22;51595;24.180;-110.296;2022-09-03T15:01:09;31.60;99.90
63875;DHT22;51595;24.180;-110.296;2022-09-03T15:09:27;32.30;99.90
63875;DHT22;51595;24.180;-110.296;2022-09-03T15:17:49;32.60;99.90
63875;DHT22;51595;24.180;-110.296;2022-09-03T15:23:30;32.40;99.90
63875;DHT22;51595;24.180;-110.296;2022-09-03T15:29:20;32.80;99.90
63875;DHT22;51595;24.180;-110.296;2022-09-03T15:35:01;33.30;99.90
63875;DHT22;51595;24.180;-110.296;2022-09-03T15:42:54;33.70;99.90
63875;DHT22;51595;24.180;-110.296;2022-09-03T15:48:36;33.90;99.90
63875;DHT22;51595;24.180;-110.296;2022-09-03T15:51:07;33.90;99.90
63875;DHT22;51595;24.180;-110.296;2022-09-03T15:54:22;33.30;99.90
63875;DHT22;51595;24.180;-110.296;2022-09-03T15:56:49;33.20;99.90
63875;DHT22;51595;24.180;-110.296;2022-09-03T15:59:24;32.90;99.90
63875;DHT22;51595;24.180;-110.296;2022-09-03T16:05:00;32.70;99.90
63875;DHT22;51595;24.180;-110.296;2022-09-03T16:10:14;33.70;99.90
63875;DHT22;51595;24.180;-110.296;2022-09-03T16:15:44;34.30;99.90
63875;DHT22;51595;24.180;-110.296;2022-09-03T16:20:55;34.50;99.90
63875;DHT22;51595;24.180;-110.296;2022-09-03T16:23:32;34.40;99.90
63875;DHT22;51595;24.180;-110.296;2022-09-03T16:26:12;34.10;99.90
63875;DHT22;51595;24.180;-110.296;2022-09-03T16:29:06;34.20;99.90
63875;DHT22;51595;24.180;-110.296;2022-09-03T16:39:45;34.50;99.90
63875;DHT22;51595;24.180;-110.296;2022-09-03T16:42:21;35.10;99.90
63875;DHT22;51595;24.180;-110.296;2022-09-03T17:01:44;34.90;99.90
63875;DHT22;51595;24.180;-110.296;2022-09-03T17:04:14;34.70;99.90
63875;DHT22;51595;24.180;-110.296;2022-09-03T17:06:50;34.30;99.90
63875;DHT22;51595;24.180;-110.296;2022-09-03T17:15:15;35.70;99.90
63875;DHT22;51595;24.180;-110.296;2022-09-03T17:26:11;36.40;99.90
63875;DHT22;51595;24.180;-110.296;2022-09-03T17:37:13;36.80;99.90
63875;DHT22;51595;24.180;-110.296;2022-09-03T17:39:52;36.90;99.90
63875;DHT22;51595;24.180;-110.296;2022-09-03T17:45:35;36.30;99.90
63875;DHT22;51595;24.180;-110.296;2022-09-03T17:53:18;36.60;99.90
63875;DHT22;51595;24.180;-110.296;2022-09-03T17:55:56;36.70;99.90
63875;DHT22;51595;24.180;-110.296;2022-09-03T17:58:35;36.10;99.90
63875;DHT22;51595;24.180;-110.296;2022-09-03T18:03:54;35.90;99.90
63875;DHT22;51595;24.180;-110.296;2022-09-03T18:09:04;35.60;99.90
63875;DHT22;51595;24.180;-110.296;2022-09-03T18:11:40;35.50;99.90
63875;DHT22;51595;24.180;-110.296;2022-09-03T18:17:01;35.70;99.90
63875;DHT22;51595;24.180;-110.296;2022-09-03T18:19:43;35.50;99.90
63875;DHT22;51595;24.180;-110.296;2022-09-03T18:22:49;35.60;99.90
63875;DHT22;51595;24.180;-110.296;2022-09-03T18:25:37;35.60;99.90
63875;DHT22;51595;24.180;-110.296;2022-09-03T18:28:37;36.20;99.90
63875;DHT22;51595;24.180;-110.296;2022-09-03T18:31:22;36.70;99.90
63875;DHT22;51595;24.180;-110.296;2022-09-03T18:34:08;36.70;99.90
63875;DHT22;51595;24.180;-110.296;2022-09-03T18:36:57;37.50;99.90
63875;DHT22;51595;24.180;-110.296;2022-09-03T18:39:44;38.10;98.70
63875;DHT22;51595;24.180;-110.296;2022-09-03T18:45:42;39.10;97.20
63875;DHT22;51595;24.180;-110.296;2022-09-03T18:55:00;39.50;92.30
63875;DHT22;51595;24.180;-110.296;2022-09-03T19:01:24;39.20;92.10
63875;DHT22;51595;24.180;-110.296;2022-09-03T19:07:51;40.00;92.10
63875;DHT22;51595;24.180;-110.296;2022-09-03T19:20:29;38.20;93.30
63875;DHT22;51595;24.180;-110.296;2022-09-03T19:23:14;37.90;94.20
63875;DHT22;51595;24.180;-110.296;2022-09-03T19:29:40;37.60;94.80
63875;DHT22;51595;24.180;-110.296;2022-09-03T19:32:44;38.60;95.10
63875;DHT22;51595;24.180;-110.296;2022-09-03T19:35:59;38.00;96.40
63875;DHT22;51595;24.180;-110.296;2022-09-03T19:42:54;35.80;99.90
63875;DHT22;51595;24.180;-110.296;2022-09-03T19:51:38;34.20;99.90
63875;DHT22;51595;24.180;-110.296;2022-09-03T19:54:26;33.40;99.90
63875;DHT22;51595;24.180;-110.296;2022-09-03T19:57:16;32.50;99.90
63875;DHT22;51595;24.180;-110.296;2022-09-03T20:00:04;32.00;99.90
63875;DHT22;51595;24.180;-110.296;2022-09-03T20:02:49;32.20;99.90
63875;DHT22;51595;24.180;-110.296;2022-09-03T20:05:36;32.20;99.90
63875;DHT22;51595;24.180;-110.296;2022-09-03T20:08:22;32.10;99.90
63875;DHT22;51595;24.180;-110.296;2022-09-03T20:11:16;32.10;99.90
63875;DHT22;51595;24.180;-110.296;2022-09-03T20:13:43;32.20;99.90
63875;DHT22;51595;24.180;-110.296;2022-09-03T20:22:18;32.70;99.90
63875;DHT22;51595;24.180;-110.296;2022-09-03T20:31:09;32.50;99.90
63875;DHT22;51595;24.180;-110.296;2022-09-03T20:39:11;32.50;99.90
63875;DHT22;51595;24.180;-110.296;2022-09-03T20:41:46;33.10;99.90
63875;DHT22;51595;24.180;-110.296;2022-09-03T20:44:36;33.10;99.90
63875;DHT22;51595;24.180;-110.296;2022-09-03T20:47:23;32.80;99.90
63875;DHT22;51595;24.180;-110.296;2022-09-03T20:55:31;33.10;99.90
63875;DHT22;51595;24.180;-110.296;2022-09-03T21:00:45;33.00;99.90
63875;DHT22;51595;24.180;-110.296;2022-09-03T21:06:41;33.20;99.90
63875;DHT22;51595;24.180;-110.296;2022-09-03T21:13:02;33.60;99.90
63875;DHT22;51595;24.180;-110.296;2022-09-03T21:15:17;33.00;99.90
63875;DHT22;51595;24.180;-110.296;2022-09-03T21:17:51;33.30;99.90
63875;DHT22;51595;24.180;-110.296;2022-09-03T21:25:47;34.70;99.90
63875;DHT22;51595;24.180;-110.296;2022-09-03T21:28:28;34.00;99.90
63875;DHT22;51595;24.180;-110.296;2022-09-03T21:30:59;34.00;99.90
63875;DHT22;51595;24.180;-110.296;2022-09-03T21:33:30;34.20;99.90
63875;DHT22;51595;24.180;-110.296;2022-09-03T21:36:14;34.50;99.90
63875;DHT22;51595;24.180;-110.296;2022-09-03T21:38:45;34.80;99.90
63875;DHT22;51595;24.180;-110.296;2022-09-03T21:41:40;34.90;99.90
63875;DHT22;51595;24.180;-110.296;2022-09-03T21:47:12;34.70;99.90